Carolina, Brazil
Current Conditions -  °F | °C
As of 2:00 PM on Saturday 22 Nov 2014 (Local Time) from SBVT Reporting Station
Scattered Clouds Scattered Clouds  
Wind Chill: 84°   Ceiling: Unl
Heat Index: 90°   Visibility: 6mi
Dew Point: 72°   Wind: 17mph
Humidity: 66%   Direction: 60°ENE
Pressure: 29.91"   Gusts: NA
Location:  20.53°S, 40.83°W
Report Text: SBVT 221600Z 06015KT 9999 SCT030 29/22 Q1013
Loading
Personal Weather Stations






























Interactive Weather Map New forecast layout! Learn more

10-Day Weather Forecast

Advertisements
Track Severe Weather on mobile